createdAt,value
2022-12-03T00:00:17.266Z,32.90
2022-12-03T00:01:17.251Z,33.30
2022-12-03T00:02:17.351Z,33.10
2022-12-03T00:03:17.384Z,31.40
2022-12-03T00:04:17.240Z,30.70
2022-12-03T00:05:17.206Z,34.10
2022-12-03T00:06:17.203Z,33.90
2022-12-03T00:07:17.189Z,31.10
2022-12-03T00:08:17.225Z,32.30
2022-12-03T00:09:17.175Z,31.60
2022-12-03T00:10:17.157Z,32.20
2022-12-03T00:11:17.145Z,33.20
2022-12-03T00:12:17.137Z,34.10
2022-12-03T00:13:17.122Z,29.50
2022-12-03T00:14:17.125Z,32.10
2022-12-03T00:15:17.100Z,33.80
2022-12-03T00:16:17.169Z,32.90
2022-12-03T00:17:17.078Z,33.40
2022-12-03T00:18:17.072Z,32.70
2022-12-03T00:19:17.068Z,32.30
2022-12-03T00:20:17.045Z,33.60
2022-12-03T00:21:17.038Z,34.60
2022-12-03T00:22:17.027Z,32.80
2022-12-03T00:23:17.018Z,32.10
2022-12-03T00:24:17.014Z,32.60
2022-12-03T00:25:16.996Z,34.30
2022-12-03T00:26:16.982Z,32.70
2022-12-03T00:27:16.975Z,35.70
2022-12-03T00:28:16.964Z,32.40
2022-12-03T00:29:16.963Z,32.40
2022-12-03T00:30:16.949Z,31.80
2022-12-03T00:31:17.008Z,33.00
2022-12-03T00:32:16.916Z,31.40
2022-12-03T00:33:16.912Z,32.50
2022-12-03T00:34:16.912Z,33.60
2022-12-03T00:35:16.891Z,33.00
2022-12-03T00:36:16.874Z,33.50
2022-12-03T00:37:16.868Z,30.50
2022-12-03T00:38:16.852Z,29.60
2022-12-03T00:39:16.847Z,31.00
2022-12-03T00:40:16.839Z,32.20
2022-12-03T00:41:16.835Z,30.40
2022-12-03T00:42:16.807Z,31.20
2022-12-03T00:43:16.832Z,32.70
2022-12-03T00:44:16.787Z,34.90
2022-12-03T00:45:16.790Z,30.10
2022-12-03T00:46:21.126Z,31.40
2022-12-03T00:47:16.761Z,32.10
2022-12-03T00:48:16.743Z,30.40
2022-12-03T00:49:16.738Z,30.90
2022-12-03T00:50:16.741Z,28.30
2022-12-03T00:51:16.716Z,29.80
2022-12-03T00:52:16.700Z,32.80
2022-12-03T00:53:16.695Z,29.90
2022-12-03T00:54:16.686Z,30.00
2022-12-03T00:55:16.684Z,30.60
2022-12-03T00:56:16.659Z,29.70
2022-12-03T00:57:16.665Z,29.10
2022-12-03T00:58:16.635Z,31.40
2022-12-03T00:59:16.625Z,25.00
2022-12-03T01:00:16.629Z,28.70
2022-12-03T01:01:16.658Z,27.50
2022-12-03T01:02:16.701Z,27.60
2022-12-03T01:03:16.598Z,28.20
2022-12-03T01:04:16.608Z,28.00
2022-12-03T01:05:16.607Z,28.40
2022-12-03T01:06:16.554Z,27.20
2022-12-03T01:07:16.540Z,29.00
2022-12-03T01:08:16.597Z,30.90
2022-12-03T01:09:16.520Z,29.60
2022-12-03T01:10:16.520Z,27.00
2022-12-03T01:11:16.505Z,25.80
2022-12-03T01:12:16.490Z,26.30
2022-12-03T01:13:16.489Z,31.00
2022-12-03T01:14:16.472Z,27.50
2022-12-03T01:15:16.487Z,27.50
2022-12-03T01:16:16.528Z,26.00
2022-12-03T01:17:16.448Z,26.50
2022-12-03T01:18:16.469Z,27.10
2022-12-03T01:19:16.444Z,25.90
2022-12-03T01:20:16.418Z,24.80
2022-12-03T01:21:16.390Z,25.90
2022-12-03T01:22:16.385Z,24.70
2022-12-03T01:23:16.367Z,27.60
2022-12-03T01:24:16.363Z,24.50
2022-12-03T01:25:16.357Z,23.10
2022-12-03T01:26:16.341Z,27.60
2022-12-03T01:27:16.323Z,23.40
2022-12-03T01:28:16.323Z,24.60
2022-12-03T01:29:16.310Z,27.30
2022-12-03T01:30:16.309Z,23.70
2022-12-03T01:31:16.306Z,25.40
2022-12-03T01:32:16.276Z,26.20
2022-12-03T01:33:16.260Z,24.90
2022-12-03T01:34:16.254Z,26.40
2022-12-03T01:35:16.253Z,26.10
2022-12-03T01:36:16.236Z,25.70
2022-12-03T01:37:16.216Z,24.90
2022-12-03T01:38:16.212Z,23.10
2022-12-03T01:39:16.199Z,30.90
2022-12-03T01:40:16.197Z,23.10
2022-12-03T01:41:16.173Z,25.50
2022-12-03T01:42:16.170Z,23.90
2022-12-03T01:43:16.172Z,24.30
2022-12-03T01:44:16.147Z,25.20
2022-12-03T01:45:16.142Z,25.30
2022-12-03T01:46:16.153Z,27.20
2022-12-03T01:47:16.110Z,26.70
2022-12-03T01:48:16.102Z,22.80
2022-12-03T01:49:16.088Z,24.60
2022-12-03T01:50:16.092Z,24.70
2022-12-03T01:51:16.067Z,26.10
2022-12-03T01:52:16.062Z,26.00
2022-12-03T01:53:16.049Z,27.50
2022-12-03T01:54:16.055Z,26.20
2022-12-03T01:55:16.041Z,27.80
2022-12-03T01:56:16.018Z,22.90
2022-12-03T01:57:16.002Z,26.80
2022-12-03T01:58:15.995Z,26.10
2022-12-03T01:59:15.980Z,26.20
2022-12-03T02:00:15.981Z,26.50
2022-12-03T02:01:16.014Z,27.20
2022-12-03T02:02:16.008Z,29.30
2022-12-03T02:03:15.942Z,30.50
2022-12-03T02:04:16.002Z,25.60
2022-12-03T02:05:15.915Z,25.20
2022-12-03T02:06:15.919Z,25.60
2022-12-03T02:07:15.893Z,28.70
2022-12-03T02:08:15.941Z,28.10
2022-12-03T02:09:15.873Z,26.70
2022-12-03T02:10:15.867Z,27.70
2022-12-03T02:11:15.861Z,29.80
2022-12-03T02:12:15.844Z,27.10
2022-12-03T02:13:15.830Z,26.20
2022-12-03T02:14:15.823Z,25.10
2022-12-03T02:15:15.807Z,26.70
2022-12-03T02:16:15.895Z,30.20
2022-12-03T02:17:15.787Z,28.30
2022-12-03T02:18:15.792Z,31.00
2022-12-03T02:19:15.766Z,29.20
2022-12-03T02:20:15.760Z,26.10
2022-12-03T02:21:15.757Z,32.90
2022-12-03T02:22:15.739Z,31.90
2022-12-03T02:23:15.722Z,31.20
2022-12-03T02:24:15.722Z,28.00
2022-12-03T02:25:15.699Z,30.40
2022-12-03T02:26:15.701Z,30.40
2022-12-03T02:27:15.682Z,31.10
2022-12-03T02:28:15.674Z,29.90
2022-12-03T02:29:15.658Z,31.90
2022-12-03T02:30:15.653Z,31.70
2022-12-03T02:31:15.710Z,29.50
2022-12-03T02:32:15.629Z,30.30
2022-12-03T02:33:15.616Z,32.10
2022-12-03T02:34:15.609Z,31.40
2022-12-03T02:35:15.593Z,28.80
2022-12-03T02:36:15.596Z,32.70
2022-12-03T02:37:15.577Z,33.20
2022-12-03T02:38:15.571Z,33.40
2022-12-03T02:39:15.550Z,30.60
2022-12-03T02:40:15.543Z,30.60
2022-12-03T02:41:15.538Z,31.70
2022-12-03T02:42:15.524Z,30.80
2022-12-03T02:43:15.506Z,31.90
2022-12-03T02:44:15.499Z,31.10
2022-12-03T02:45:15.485Z,32.60
2022-12-03T02:46:15.529Z,30.80
2022-12-03T02:47:15.465Z,32.70
2022-12-03T02:48:15.459Z,29.50
2022-12-03T02:49:15.443Z,30.20
2022-12-03T02:50:15.440Z,29.80
2022-12-03T02:51:15.430Z,29.80
2022-12-03T02:52:15.415Z,30.70
2022-12-03T02:53:15.400Z,31.50
2022-12-03T02:54:15.395Z,34.50
2022-12-03T02:55:15.378Z,30.80
2022-12-03T02:56:15.383Z,29.50
2022-12-03T02:57:15.356Z,33.20
2022-12-03T02:58:15.351Z,32.30
2022-12-03T02:59:15.334Z,31.80
2022-12-03T03:00:15.346Z,32.10
2022-12-03T03:01:15.371Z,34.00
2022-12-03T03:02:15.332Z,32.20
2022-12-03T03:03:15.292Z,34.10
2022-12-03T03:04:15.284Z,32.10
2022-12-03T03:05:15.271Z,32.30
2022-12-03T03:06:15.274Z,32.40
2022-12-03T03:07:15.246Z,34.60
2022-12-03T03:08:15.266Z,34.20
2022-12-03T03:09:15.228Z,33.70
2022-12-03T03:10:15.222Z,34.40
2022-12-03T03:11:15.218Z,36.00
2022-12-03T03:12:15.200Z,34.50
2022-12-03T03:13:15.183Z,37.10
2022-12-03T03:14:15.177Z,32.40
2022-12-03T03:15:15.159Z,36.20
2022-12-03T03:16:15.229Z,35.40
2022-12-03T03:17:15.143Z,36.90
2022-12-03T03:18:15.132Z,36.20
2022-12-03T03:19:15.118Z,32.90
2022-12-03T03:20:15.113Z,35.40
2022-12-03T03:21:15.106Z,32.00
2022-12-03T03:22:15.092Z,33.50
2022-12-03T03:23:15.075Z,34.20
2022-12-03T03:24:15.070Z,32.80
2022-12-03T03:25:15.053Z,37.20
2022-12-03T03:26:15.054Z,33.00
2022-12-03T03:27:15.030Z,36.50
2022-12-03T03:28:15.027Z,32.80
2022-12-03T03:29:15.011Z,35.80
2022-12-03T03:30:15.004Z,36.60
2022-12-03T03:31:15.043Z,35.70
2022-12-03T03:32:14.980Z,39.00
2022-12-03T03:33:14.972Z,37.30
2022-12-03T03:34:14.961Z,32.90
2022-12-03T03:35:14.945Z,41.70
2022-12-03T03:36:14.959Z,38.50
2022-12-03T03:37:14.923Z,35.30
2022-12-03T03:38:14.915Z,37.80
2022-12-03T03:39:14.911Z,38.30
2022-12-03T03:40:14.893Z,39.20
2022-12-03T03:41:14.881Z,37.30
2022-12-03T03:42:14.884Z,37.10
2022-12-03T03:43:14.860Z,39.40
2022-12-03T03:44:14.850Z,42.40
2022-12-03T03:45:14.835Z,38.30
2022-12-03T03:46:14.861Z,36.90
2022-12-03T03:47:14.827Z,38.10
2022-12-03T03:48:14.807Z,39.40
2022-12-03T03:49:14.798Z,40.50
2022-12-03T03:50:14.787Z,43.30
2022-12-03T03:51:14.773Z,42.20
2022-12-03T03:52:14.774Z,35.60
2022-12-03T03:53:14.751Z,44.10
2022-12-03T03:54:14.742Z,42.40
2022-12-03T03:55:14.729Z,41.70
2022-12-03T03:56:14.719Z,42.30
2022-12-03T03:57:14.716Z,39.40
2022-12-03T03:58:14.701Z,41.30
2022-12-03T03:59:14.692Z,42.00
2022-12-03T04:00:14.682Z,44.50
2022-12-03T04:01:14.726Z,40.40
2022-12-03T04:02:14.664Z,37.90
2022-12-03T04:03:14.646Z,42.30
2022-12-03T04:04:14.703Z,38.70
2022-12-03T04:05:14.645Z,39.70
2022-12-03T04:06:14.610Z,42.00
2022-12-03T04:07:14.613Z,42.30
2022-12-03T04:08:14.647Z,43.80
2022-12-03T04:09:14.597Z,42.40
2022-12-03T04:10:14.567Z,44.60
2022-12-03T04:11:14.565Z,46.80
2022-12-03T04:12:14.557Z,40.70
2022-12-03T04:13:14.536Z,44.60
2022-12-03T04:14:14.523Z,42.50
2022-12-03T04:15:14.521Z,44.60
2022-12-03T04:16:14.520Z,50.00
2022-12-03T04:17:14.502Z,45.60
2022-12-03T04:18:14.478Z,46.70
2022-12-03T04:19:14.472Z,47.10
2022-12-03T04:20:14.459Z,47.10
2022-12-03T04:21:14.450Z,41.80
2022-12-03T04:22:14.448Z,44.50
2022-12-03T04:23:14.436Z,49.00
2022-12-03T04:24:14.412Z,47.80
2022-12-03T04:25:14.408Z,40.10
2022-12-03T04:26:14.394Z,41.40
2022-12-03T04:27:14.398Z,41.30
2022-12-03T04:28:14.370Z,45.00
2022-12-03T04:29:14.374Z,40.20
2022-12-03T04:30:14.485Z,45.10
2022-12-03T04:31:14.410Z,53.70
2022-12-03T04:32:14.340Z,47.50
2022-12-03T04:33:14.322Z,46.90
2022-12-03T04:34:14.311Z,46.10
2022-12-03T04:35:14.384Z,44.80
2022-12-03T04:36:14.288Z,45.70
2022-12-03T04:37:14.286Z,46.20
2022-12-03T04:38:14.274Z,40.00
2022-12-03T04:39:14.253Z,39.90
2022-12-03T04:40:14.246Z,43.30
2022-12-03T04:41:14.231Z,36.70
2022-12-03T04:42:14.242Z,38.60
2022-12-03T04:43:14.211Z,43.40
2022-12-03T04:44:14.282Z,38.50
2022-12-03T04:45:14.189Z,38.50
2022-12-03T04:46:14.211Z,39.90
2022-12-03T04:47:14.167Z,38.70
2022-12-03T04:48:14.169Z,36.30
2022-12-03T04:49:14.148Z,39.80
2022-12-03T04:50:14.139Z,37.70
2022-12-03T04:51:14.124Z,38.50
2022-12-03T04:52:14.117Z,38.80
2022-12-03T04:53:14.115Z,39.20
2022-12-03T04:54:14.096Z,36.50
2022-12-03T04:55:14.079Z,39.80
2022-12-03T04:56:14.073Z,38.80
2022-12-03T04:57:14.057Z,38.90
2022-12-03T04:58:14.064Z,37.30
2022-12-03T04:59:16.295Z,39.10
2022-12-03T05:00:14.030Z,34.90
2022-12-03T05:01:14.080Z,38.30
2022-12-03T05:02:14.171Z,36.90
2022-12-03T05:03:14.009Z,33.90
2022-12-03T05:04:13.991Z,37.30
2022-12-03T05:05:13.976Z,39.10
2022-12-03T05:06:13.965Z,36.20
2022-12-03T05:07:13.955Z,36.90
2022-12-03T05:08:14.009Z,33.00
2022-12-03T05:09:13.929Z,36.80
2022-12-03T05:10:13.923Z,37.80
2022-12-03T05:11:13.908Z,37.90
2022-12-03T05:12:13.910Z,36.70
2022-12-03T05:13:13.907Z,37.30
2022-12-03T05:14:13.881Z,36.40
2022-12-03T05:15:13.867Z,36.20
2022-12-03T05:16:13.918Z,37.60
2022-12-03T05:17:13.949Z,36.40
2022-12-03T05:18:13.849Z,35.40
2022-12-03T05:19:13.821Z,36.20
2022-12-03T05:20:13.816Z,39.30
2022-12-03T05:21:13.801Z,38.90
2022-12-03T05:22:13.795Z,35.90
2022-12-03T05:23:13.792Z,34.90
2022-12-03T05:24:13.771Z,35.70
2022-12-03T05:25:13.765Z,36.50
2022-12-03T05:26:13.751Z,34.60
2022-12-03T05:27:15.809Z,38.40
2022-12-03T05:28:13.751Z,35.40
2022-12-03T05:29:13.712Z,37.70
2022-12-03T05:30:13.716Z,37.20
2022-12-03T05:31:13.784Z,32.30
2022-12-03T05:32:13.684Z,35.70
2022-12-03T05:33:13.684Z,33.40
2022-12-03T05:34:13.664Z,31.30
2022-12-03T05:35:13.649Z,31.90
2022-12-03T05:36:13.644Z,32.70
2022-12-03T05:37:13.627Z,32.80
2022-12-03T05:38:13.638Z,32.00
2022-12-03T05:39:13.605Z,28.70
2022-12-03T05:40:13.611Z,33.10
2022-12-03T05:41:13.585Z,31.50
2022-12-03T05:42:13.579Z,33.00
2022-12-03T05:43:13.564Z,32.00
2022-12-03T05:44:18.847Z,32.30
2022-12-03T05:45:13.551Z,30.80
2022-12-03T05:46:13.603Z,32.90
2022-12-03T05:47:13.522Z,31.90
2022-12-03T05:48:13.514Z,33.20
2022-12-03T05:49:13.515Z,34.40
2022-12-03T05:50:13.491Z,35.20
2022-12-03T05:51:13.476Z,34.00
2022-12-03T05:52:13.476Z,35.10
2022-12-03T05:53:13.454Z,32.80
2022-12-03T05:54:13.463Z,33.10
2022-12-03T05:55:13.436Z,32.90
2022-12-03T05:56:13.427Z,33.10
2022-12-03T05:57:13.411Z,33.10
2022-12-03T05:58:13.408Z,35.40
2022-12-03T05:59:13.401Z,32.30
2022-12-03T06:00:13.384Z,33.50
2022-12-03T06:01:13.372Z,34.80
2022-12-03T06:02:13.476Z,32.40
2022-12-03T06:03:13.516Z,34.50
2022-12-03T06:04:13.353Z,32.60
2022-12-03T06:05:13.331Z,30.80
2022-12-03T06:06:13.320Z,33.10
2022-12-03T06:07:14.298Z,32.20
2022-12-03T06:08:13.342Z,33.10
2022-12-03T06:09:13.292Z,31.40
2022-12-03T06:10:13.276Z,33.80
2022-12-03T06:11:13.261Z,32.90
2022-12-03T06:12:13.254Z,34.40
2022-12-03T06:13:13.240Z,33.70
2022-12-03T06:14:13.242Z,32.00
2022-12-03T06:15:13.218Z,36.60
2022-12-03T06:16:13.249Z,33.50
2022-12-03T06:17:13.206Z,31.90
2022-12-03T06:18:13.203Z,31.80
2022-12-03T06:19:13.187Z,35.30
2022-12-03T06:20:13.169Z,34.10
2022-12-03T06:21:13.154Z,32.80
2022-12-03T06:22:13.147Z,33.40
2022-12-03T06:23:13.132Z,32.50
2022-12-03T06:24:13.137Z,31.30
2022-12-03T06:25:13.110Z,30.50
2022-12-03T06:26:13.105Z,33.80
2022-12-03T06:27:13.089Z,35.10
2022-12-03T06:28:13.086Z,32.60
2022-12-03T06:29:13.076Z,32.90
2022-12-03T06:30:13.063Z,35.20
2022-12-03T06:31:13.115Z,33.00
2022-12-03T06:32:13.039Z,31.80
2022-12-03T06:33:13.025Z,34.90
2022-12-03T06:34:13.027Z,34.60
2022-12-03T06:35:13.002Z,35.90
2022-12-03T06:36:13.003Z,38.90
2022-12-03T06:37:12.991Z,36.20
2022-12-03T06:38:12.981Z,31.90
2022-12-03T06:39:12.971Z,34.20
2022-12-03T06:40:12.951Z,33.10
2022-12-03T06:41:12.937Z,37.90
2022-12-03T06:42:12.934Z,38.20
2022-12-03T06:43:12.916Z,37.80
2022-12-03T06:44:12.921Z,36.40
2022-12-03T06:45:12.896Z,37.70
2022-12-03T06:46:12.948Z,38.60
2022-12-03T06:47:12.872Z,37.70
2022-12-03T06:48:12.867Z,36.40
2022-12-03T06:49:12.864Z,39.10
2022-12-03T06:50:12.863Z,38.50
2022-12-03T06:51:12.836Z,39.40
2022-12-03T06:52:12.825Z,36.00
2022-12-03T06:53:12.811Z,39.90
2022-12-03T06:54:12.813Z,38.80
2022-12-03T06:55:12.787Z,34.80
2022-12-03T06:56:12.783Z,38.20
2022-12-03T06:57:12.767Z,38.10
2022-12-03T06:58:12.762Z,36.50
2022-12-03T06:59:12.758Z,39.30
2022-12-03T07:00:12.733Z,38.20
2022-12-03T07:01:12.758Z,36.30
2022-12-03T07:02:12.849Z,36.10
2022-12-03T07:03:12.754Z,37.80
2022-12-03T07:04:12.700Z,37.00
2022-12-03T07:05:12.686Z,41.40
2022-12-03T07:06:12.671Z,38.60
2022-12-03T07:07:12.664Z,38.50
2022-12-03T07:08:12.703Z,36.40
2022-12-03T07:09:12.652Z,35.80
2022-12-03T07:10:12.625Z,37.70
2022-12-03T07:11:12.619Z,42.30
2022-12-03T07:12:12.610Z,39.20
2022-12-03T07:13:12.604Z,34.90
2022-12-03T07:14:12.594Z,38.30
2022-12-03T07:15:12.576Z,36.20
2022-12-03T07:16:12.589Z,38.50
2022-12-03T07:17:12.555Z,37.40
2022-12-03T07:18:12.540Z,33.70
2022-12-03T07:19:12.562Z,35.00
2022-12-03T07:20:12.521Z,37.30
2022-12-03T07:21:12.512Z,36.50
2022-12-03T07:22:12.494Z,37.00
2022-12-03T07:23:12.489Z,36.20
2022-12-03T07:24:12.478Z,32.40
2022-12-03T07:25:12.478Z,36.50
2022-12-03T07:26:12.454Z,35.80
2022-12-03T07:27:12.445Z,41.00
2022-12-03T07:28:12.434Z,36.50
2022-12-03T07:29:12.425Z,38.40
2022-12-03T07:30:12.420Z,37.30
2022-12-03T07:31:12.437Z,39.30
2022-12-03T07:32:12.388Z,37.60
2022-12-03T07:33:12.381Z,35.60
2022-12-03T07:34:12.369Z,35.90
2022-12-03T07:35:12.370Z,35.90
2022-12-03T07:36:12.344Z,38.40
2022-12-03T07:37:12.337Z,40.30
2022-12-03T07:38:12.322Z,41.40
2022-12-03T07:39:12.318Z,40.50
2022-12-03T07:40:12.314Z,38.30
2022-12-03T07:41:12.298Z,37.10
2022-12-03T07:42:12.282Z,36.30
2022-12-03T07:43:12.274Z,38.40
2022-12-03T07:44:14.586Z,32.40
2022-12-03T07:45:12.264Z,39.10
2022-12-03T07:46:12.285Z,35.00
2022-12-03T07:47:12.288Z,38.40
2022-12-03T07:48:12.214Z,34.50
2022-12-03T07:49:12.211Z,35.90
2022-12-03T07:50:12.201Z,35.50
2022-12-03T07:51:15.157Z,34.80
2022-12-03T07:52:12.178Z,35.10
2022-12-03T07:53:12.164Z,35.60
2022-12-03T07:54:12.151Z,32.50
2022-12-03T07:55:12.156Z,37.10
2022-12-03T07:56:12.132Z,37.80
2022-12-03T07:57:12.123Z,37.20
2022-12-03T07:58:12.112Z,35.40
2022-12-03T07:59:12.101Z,33.50
2022-12-03T08:00:12.095Z,33.40
2022-12-03T08:01:12.188Z,34.50
2022-12-03T08:02:13.896Z,34.90
2022-12-03T08:03:12.063Z,37.80
2022-12-03T08:04:12.070Z,35.00
2022-12-03T08:05:12.044Z,36.10
2022-12-03T08:06:12.021Z,36.10
2022-12-03T08:07:12.014Z,37.40
2022-12-03T08:08:12.080Z,38.20
2022-12-03T08:09:15.734Z,36.80
2022-12-03T08:10:11.988Z,37.90
2022-12-03T08:11:11.971Z,36.10
2022-12-03T08:12:11.955Z,33.80
2022-12-03T08:13:11.950Z,37.40
2022-12-03T08:14:11.965Z,35.70
2022-12-03T08:15:11.936Z,37.10
2022-12-03T08:16:11.965Z,43.30
2022-12-03T08:17:11.908Z,35.90
2022-12-03T08:18:11.899Z,38.40
2022-12-03T08:19:11.882Z,36.50
2022-12-03T08:20:11.880Z,38.20
2022-12-03T08:21:11.863Z,39.00
2022-12-03T08:22:11.849Z,38.60
2022-12-03T08:23:11.839Z,38.20
2022-12-03T08:24:11.828Z,38.80
2022-12-03T08:25:11.827Z,38.00
2022-12-03T08:26:11.803Z,40.30
2022-12-03T08:27:11.797Z,42.20
2022-12-03T08:28:11.784Z,40.80
2022-12-03T08:29:11.778Z,37.40
2022-12-03T08:30:11.779Z,40.50
2022-12-03T08:31:11.816Z,38.80
2022-12-03T08:32:11.816Z,37.30
2022-12-03T08:33:11.733Z,42.20
2022-12-03T08:34:11.717Z,39.40
2022-12-03T08:35:11.711Z,37.70
2022-12-03T08:36:11.709Z,42.60
2022-12-03T08:37:11.694Z,41.70
2022-12-03T08:38:11.672Z,47.60
2022-12-03T08:39:11.668Z,41.40
2022-12-03T08:40:11.652Z,44.90
2022-12-03T08:41:11.657Z,44.90
2022-12-03T08:42:13.859Z,44.30
2022-12-03T08:43:11.622Z,42.70
2022-12-03T08:44:11.610Z,37.30
2022-12-03T08:45:11.602Z,41.20
2022-12-03T08:46:11.684Z,41.50
2022-12-03T08:47:11.582Z,40.10
2022-12-03T08:48:11.569Z,40.30
2022-12-03T08:49:11.556Z,43.80
2022-12-03T08:50:11.548Z,41.60
2022-12-03T08:51:11.550Z,43.40
2022-12-03T08:52:11.532Z,40.80
2022-12-03T08:53:11.516Z,37.80
2022-12-03T08:54:11.505Z,42.00
2022-12-03T08:55:11.491Z,42.40
2022-12-03T08:56:11.492Z,43.80
2022-12-03T08:57:11.468Z,46.10
2022-12-03T08:58:11.461Z,42.60
2022-12-03T08:59:11.447Z,46.10
2022-12-03T09:00:11.444Z,40.40
2022-12-03T09:01:11.597Z,40.90
2022-12-03T09:02:11.419Z,38.90
2022-12-03T09:03:11.408Z,43.00
2022-12-03T09:04:11.466Z,38.90
2022-12-03T09:05:11.381Z,46.60
2022-12-03T09:06:11.384Z,40.30
2022-12-03T09:07:11.358Z,51.60
2022-12-03T09:08:11.396Z,43.00
2022-12-03T09:09:11.338Z,40.40
2022-12-03T09:10:11.336Z,39.20
2022-12-03T09:11:11.327Z,46.30
2022-12-03T09:12:11.318Z,46.20
2022-12-03T09:13:11.297Z,40.90
2022-12-03T09:14:16.691Z,45.00
2022-12-03T09:15:11.281Z,43.50
2022-12-03T09:16:11.340Z,45.40
2022-12-03T09:17:11.288Z,39.70
2022-12-03T09:18:11.244Z,43.00
2022-12-03T09:19:11.246Z,37.70
2022-12-03T09:20:11.226Z,39.80
2022-12-03T09:21:11.220Z,42.90
2022-12-03T09:22:11.203Z,44.00
2022-12-03T09:36:09.166Z,32.30
2022-12-03T09:37:10.164Z,40.00
2022-12-03T09:38:10.140Z,41.00
2022-12-03T09:39:10.132Z,46.60
2022-12-03T09:40:10.126Z,48.40
2022-12-03T09:41:10.111Z,49.50
2022-12-03T09:42:10.113Z,43.60
2022-12-03T09:43:10.091Z,46.10
2022-12-03T09:44:15.781Z,46.60
2022-12-03T09:45:10.073Z,45.20
2022-12-03T09:46:10.141Z,45.10
2022-12-03T09:47:10.058Z,46.70
2022-12-03T09:48:10.031Z,41.30
2022-12-03T09:49:15.575Z,42.30
2022-12-03T09:50:10.016Z,39.60
2022-12-03T09:51:10.002Z,42.50
2022-12-03T09:52:09.999Z,42.30
2022-12-03T09:53:09.984Z,38.20
2022-12-03T09:54:09.975Z,40.40
2022-12-03T09:55:09.963Z,40.40
2022-12-03T09:56:09.945Z,36.70
2022-12-03T09:57:09.951Z,39.80
2022-12-03T09:58:09.921Z,37.50
2022-12-03T09:59:09.922Z,37.40
2022-12-03T10:00:09.903Z,40.90
2022-12-03T10:01:09.932Z,38.30
2022-12-03T10:02:09.914Z,37.70
2022-12-03T10:03:09.875Z,38.50
2022-12-03T10:04:09.891Z,38.50
2022-12-03T10:05:09.951Z,37.90
2022-12-03T10:06:09.836Z,32.60
2022-12-03T10:07:09.934Z,31.00
2022-12-03T10:08:09.855Z,34.10
2022-12-03T10:09:09.808Z,34.30
2022-12-03T10:10:09.791Z,35.70
2022-12-03T10:11:09.785Z,34.00
2022-12-03T10:12:09.780Z,34.90
2022-12-03T10:13:09.768Z,36.80
2022-12-03T10:14:09.749Z,34.90
2022-12-03T10:15:09.743Z,35.80
2022-12-03T10:16:09.727Z,37.50
2022-12-03T10:17:09.786Z,33.10
2022-12-03T10:18:09.705Z,38.60
2022-12-03T10:19:09.718Z,36.80
2022-12-03T10:20:09.687Z,36.60
2022-12-03T10:21:09.678Z,38.00
2022-12-03T10:22:09.674Z,36.70
2022-12-03T10:23:09.658Z,36.80
2022-12-03T10:24:09.641Z,32.00
2022-12-03T10:25:09.633Z,35.00
2022-12-03T10:26:09.623Z,33.90
2022-12-03T10:27:09.623Z,33.70
2022-12-03T10:28:09.597Z,36.40
2022-12-03T10:29:09.590Z,37.00
2022-12-03T10:30:09.573Z,37.10
2022-12-03T10:31:09.638Z,33.90
2022-12-03T10:32:09.565Z,31.20
2022-12-03T10:33:12.125Z,31.10
2022-12-03T10:34:09.533Z,38.60
2022-12-03T10:35:09.546Z,36.70
2022-12-03T10:36:09.509Z,34.00
2022-12-03T10:37:09.513Z,31.80
2022-12-03T10:38:09.487Z,35.60
2022-12-03T10:39:09.487Z,32.70
2022-12-03T10:40:09.478Z,32.30
2022-12-03T10:41:09.458Z,34.30
2022-12-03T10:42:09.454Z,33.50
2022-12-03T10:43:09.439Z,36.50
2022-12-03T10:44:09.426Z,35.40
2022-12-03T10:45:09.421Z,32.70
2022-12-03T10:46:09.558Z,35.50
2022-12-03T10:47:09.544Z,29.80
2022-12-03T10:48:09.380Z,34.30
2022-12-03T10:49:09.371Z,30.70
2022-12-03T10:50:09.356Z,31.70
2022-12-03T10:51:09.351Z,30.20
2022-12-03T10:52:09.334Z,29.20
2022-12-03T10:53:09.339Z,31.80
2022-12-03T10:54:09.313Z,37.00
2022-12-03T10:55:09.303Z,36.50
2022-12-03T10:56:09.295Z,33.00
2022-12-03T10:57:09.292Z,31.60
2022-12-03T10:58:09.280Z,31.90
2022-12-03T10:59:09.257Z,32.40
2022-12-03T11:00:09.252Z,32.10
2022-12-03T11:01:09.262Z,31.20
2022-12-03T11:02:09.322Z,28.10
2022-12-03T11:03:09.294Z,32.60
2022-12-03T11:04:09.266Z,32.50
2022-12-03T11:05:09.191Z,30.90
2022-12-03T11:06:09.188Z,31.00
2022-12-03T11:07:09.170Z,30.90
2022-12-03T11:08:09.268Z,27.80
2022-12-03T11:09:09.389Z,31.50
2022-12-03T11:10:09.142Z,33.50
2022-12-03T11:11:09.126Z,29.00
2022-12-03T11:12:09.120Z,30.80
2022-12-03T11:13:09.116Z,31.00
2022-12-03T11:14:09.096Z,31.00
2022-12-03T11:15:09.083Z,30.90
2022-12-03T11:16:09.157Z,33.20
2022-12-03T11:17:09.061Z,31.20
2022-12-03T11:18:09.063Z,32.00
2022-12-03T11:19:09.039Z,33.20
2022-12-03T11:20:09.032Z,33.10
2022-12-03T11:21:09.024Z,33.40
2022-12-03T11:22:09.011Z,38.50
2022-12-03T11:23:09.005Z,37.30
2022-12-03T11:24:08.995Z,35.80
2022-12-03T11:25:08.973Z,37.30
2022-12-03T11:26:10.368Z,33.70
2022-12-03T11:27:08.954Z,34.60
2022-12-03T11:28:08.955Z,35.70
2022-12-03T11:29:09.123Z,33.90
2022-12-03T11:30:08.924Z,38.00
2022-12-03T11:31:08.948Z,36.50
2022-12-03T11:32:09.009Z,32.00
2022-12-03T11:33:08.898Z,36.30
2022-12-03T11:34:08.879Z,38.40
2022-12-03T11:35:08.866Z,35.50
2022-12-03T11:36:09.075Z,35.80
2022-12-03T11:37:08.844Z,38.70
2022-12-03T11:38:08.849Z,37.20
2022-12-03T11:39:08.821Z,37.10
2022-12-03T11:40:08.814Z,35.00
2022-12-03T11:41:08.799Z,35.00
2022-12-03T11:42:08.794Z,40.50
2022-12-03T11:43:08.794Z,37.60
2022-12-03T11:44:08.770Z,38.00
2022-12-03T11:45:08.755Z,36.90
2022-12-03T11:46:08.828Z,37.60
2022-12-03T11:47:08.785Z,34.70
2022-12-03T11:48:08.731Z,34.50
2022-12-03T11:49:08.721Z,38.00
2022-12-03T11:50:08.704Z,39.40
2022-12-03T11:51:08.689Z,36.40
2022-12-03T11:52:08.681Z,41.20
2022-12-03T11:53:08.667Z,41.60
2022-12-03T11:54:08.672Z,42.00
2022-12-03T11:55:08.646Z,37.30
2022-12-03T11:56:08.677Z,38.10
2022-12-03T11:57:08.624Z,39.40
2022-12-03T11:58:08.623Z,42.00
2022-12-03T11:59:08.614Z,34.20
2022-12-03T12:00:08.596Z,37.60
2022-12-03T12:01:08.620Z,37.70
2022-12-03T12:02:08.573Z,39.20
2022-12-03T12:03:08.659Z,38.40
2022-12-03T12:04:08.625Z,38.50
2022-12-03T12:05:08.536Z,38.20
2022-12-03T12:06:08.528Z,38.60
2022-12-03T12:07:08.511Z,37.10
2022-12-03T12:08:08.579Z,37.70
2022-12-03T12:09:08.502Z,40.50
2022-12-03T12:10:08.484Z,39.30
2022-12-03T12:11:08.471Z,39.20
2022-12-03T12:12:08.464Z,41.90
2022-12-03T12:13:08.448Z,40.20
2022-12-03T12:14:08.457Z,38.00
2022-12-03T12:15:08.427Z,38.60
2022-12-03T12:16:08.495Z,39.10
2022-12-03T12:17:08.406Z,38.60
2022-12-03T12:18:08.399Z,42.10
2022-12-03T12:19:08.392Z,39.40
2022-12-03T12:20:08.377Z,37.40
2022-12-03T12:21:08.363Z,37.30
2022-12-03T12:22:08.354Z,36.60
2022-12-03T12:23:08.344Z,37.20
2022-12-03T12:24:08.345Z,39.50
2022-12-03T12:25:08.318Z,37.90
2022-12-03T12:26:08.312Z,34.60
2022-12-03T12:27:08.300Z,39.20
2022-12-03T12:28:08.288Z,40.70
2022-12-03T12:29:08.286Z,35.90
2022-12-03T12:30:08.269Z,38.20
2022-12-03T12:31:08.295Z,37.70
2022-12-03T12:32:08.361Z,37.30
2022-12-03T12:33:08.230Z,37.30
2022-12-03T12:34:08.238Z,37.90
2022-12-03T12:35:08.209Z,37.60
2022-12-03T12:36:08.195Z,36.10
2022-12-03T12:37:08.189Z,39.60
2022-12-03T12:38:08.210Z,36.20
2022-12-03T12:39:08.177Z,44.20
2022-12-03T12:40:08.160Z,39.10
2022-12-03T12:41:08.145Z,38.70
2022-12-03T12:42:08.143Z,39.90
2022-12-03T12:43:12.617Z,38.30
2022-12-03T12:44:08.124Z,40.40
2022-12-03T12:45:08.121Z,39.70
2022-12-03T12:46:31.467Z,40.00
2022-12-03T12:47:08.123Z,38.20
2022-12-03T12:48:08.072Z,38.60
2022-12-03T12:49:08.067Z,33.90
2022-12-03T12:50:08.062Z,37.40
2022-12-03T12:51:08.035Z,34.30
2022-12-03T12:52:08.020Z,36.60
2022-12-03T12:53:08.017Z,37.50
2022-12-03T12:54:08.018Z,36.30
2022-12-03T12:55:07.996Z,38.90
2022-12-03T12:56:08.007Z,38.30
2022-12-03T12:57:07.974Z,37.10
2022-12-03T12:58:07.955Z,38.00
2022-12-03T12:59:07.949Z,39.10
2022-12-03T13:00:07.942Z,37.60
2022-12-03T13:01:08.019Z,35.80
2022-12-03T13:02:10.295Z,39.20
2022-12-03T13:03:07.905Z,37.30
2022-12-03T13:04:07.890Z,38.70
2022-12-03T13:05:07.891Z,38.80